createdAt,value
2018-03-30T00:02:07.043Z,24.60
2018-03-30T00:04:34.543Z,21.15
2018-03-30T00:07:07.738Z,17.20
2018-03-30T00:09:47.182Z,22.27
2018-03-30T00:12:14.635Z,18.58
2018-03-30T00:14:42.234Z,15.43
2018-03-30T00:17:09.719Z,28.08
2018-03-30T00:19:37.220Z,16.27
2018-03-30T00:22:04.685Z,12.02
2018-03-30T00:24:32.163Z,13.13
2018-03-30T00:27:00.396Z,13.45
2018-03-30T00:29:27.884Z,11.73
2018-03-30T00:31:55.344Z,30.67
2018-03-30T00:34:23.595Z,27.80
2018-03-30T00:36:51.072Z,32.58
2018-03-30T00:39:18.543Z,16.12
2018-03-30T00:41:46.802Z,24.87
2018-03-30T00:44:14.300Z,26.95
2018-03-30T00:46:42.643Z,24.15
2018-03-30T00:49:10.222Z,30.12
2018-03-30T00:51:38.499Z,24.10
2018-03-30T00:54:06.741Z,22.05
2018-03-30T00:56:34.254Z,18.90
2018-03-30T00:59:01.796Z,25.90
2018-03-30T01:01:30.042Z,24.27
2018-03-30T01:03:57.542Z,23.85
2018-03-30T01:06:25.015Z,22.70
2018-03-30T01:08:52.513Z,35.20
2018-03-30T01:11:19.978Z,35.53
2018-03-30T01:13:47.468Z,26.15
2018-03-30T01:16:15.713Z,37.20
2018-03-30T01:18:43.190Z,64.12
2018-03-30T01:21:11.410Z,62.08
2018-03-30T01:23:38.895Z,100.95
2018-03-30T01:26:06.405Z,128.30
2018-03-30T01:28:33.869Z,122.82
2018-03-30T01:31:01.380Z,194.48
2018-03-30T01:33:28.862Z,126.12
2018-03-30T01:35:57.110Z,176.27
2018-03-30T01:38:24.674Z,171.02
2018-03-30T01:40:52.150Z,77.50
2018-03-30T01:43:20.393Z,165.73
2018-03-30T01:45:47.859Z,106.10
2018-03-30T01:48:15.338Z,147.18
2018-03-30T01:50:43.565Z,75.65
2018-03-30T01:53:11.048Z,112.32
2018-03-30T01:55:38.515Z,113.70
2018-03-30T01:58:05.993Z,85.55
2018-03-30T02:00:34.213Z,226.75
2018-03-30T02:03:01.758Z,89.22
2018-03-30T02:05:29.960Z,104.20
2018-03-30T02:07:57.410Z,103.45
2018-03-30T02:10:24.903Z,93.40
2018-03-30T02:12:52.354Z,133.45
2018-03-30T02:15:20.601Z,59.65
2018-03-30T02:17:48.094Z,63.83
2018-03-30T02:20:15.573Z,77.22
2018-03-30T02:22:43.810Z,83.95
2018-03-30T02:25:11.318Z,86.80
2018-03-30T02:27:38.783Z,79.95
2018-03-30T02:30:06.278Z,64.15
2018-03-30T02:32:33.751Z,76.62
2018-03-30T02:35:01.231Z,95.22
2018-03-30T02:37:29.482Z,67.53
2018-03-30T02:39:56.941Z,71.32
2018-03-30T02:42:24.434Z,53.78
2018-03-30T02:44:51.949Z,65.43
2018-03-30T02:47:19.455Z,48.75
2018-03-30T02:49:46.904Z,66.32
2018-03-30T02:52:15.151Z,40.33
2018-03-30T02:54:42.603Z,46.55
2018-03-30T02:57:10.082Z,42.25
2018-03-30T02:59:38.316Z,59.35
2018-03-30T03:02:05.774Z,56.00
2018-03-30T03:04:33.250Z,41.60
2018-03-30T03:07:00.720Z,42.60
2018-03-30T03:09:28.197Z,35.42
2018-03-30T03:11:55.654Z,60.58
2018-03-30T03:14:23.898Z,53.42
2018-03-30T03:16:51.361Z,35.78
2018-03-30T03:19:18.841Z,51.58
2018-03-30T03:21:47.082Z,45.80
2018-03-30T03:24:14.539Z,36.30
2018-03-30T03:26:42.028Z,39.65
2018-03-30T03:29:10.261Z,72.47
2018-03-30T03:31:37.770Z,51.55
2018-03-30T03:34:06.010Z,51.22
2018-03-30T03:36:33.505Z,83.18
2018-03-30T03:39:01.737Z,91.55
2018-03-30T03:41:29.209Z,66.87
2018-03-30T03:43:56.694Z,170.10
2018-03-30T03:46:24.930Z,122.13
2018-03-30T03:48:52.410Z,180.18
2018-03-30T03:51:19.872Z,45.35
2018-03-30T03:53:48.109Z,57.13
2018-03-30T03:56:15.574Z,36.92
2018-03-30T03:58:43.047Z,46.75
2018-03-30T04:01:10.508Z,55.47
2018-03-30T04:03:38.057Z,59.78
2018-03-30T04:06:05.531Z,44.95
2018-03-30T04:08:33.008Z,64.80
2018-03-30T04:11:00.486Z,54.85
2018-03-30T04:13:27.939Z,61.47
2018-03-30T04:15:55.409Z,63.03
2018-03-30T04:18:22.869Z,51.90
2018-03-30T04:20:50.347Z,37.63
2018-03-30T04:23:17.806Z,89.95
2018-03-30T04:25:45.292Z,61.47
2018-03-30T04:28:12.748Z,56.95
2018-03-30T04:30:40.227Z,54.17
2018-03-30T04:33:08.470Z,62.00
2018-03-30T04:35:35.940Z,62.10
2018-03-30T04:38:03.437Z,37.17
2018-03-30T04:40:30.887Z,57.67
2018-03-30T04:42:58.381Z,61.17
2018-03-30T04:45:25.849Z,49.67
2018-03-30T04:47:53.334Z,57.75
2018-03-30T04:50:20.882Z,55.53
2018-03-30T04:52:48.341Z,46.25
2018-03-30T04:55:15.925Z,60.42
2018-03-30T04:57:43.351Z,51.35
2018-03-30T05:00:10.849Z,53.90
2018-03-30T05:02:38.325Z,52.62
2018-03-30T05:05:06.090Z,75.35
2018-03-30T05:07:33.566Z,57.47
2018-03-30T05:10:01.051Z,65.78
2018-03-30T05:12:28.530Z,60.95
2018-03-30T05:14:56.766Z,87.45
2018-03-30T05:17:24.259Z,63.35
2018-03-30T05:19:51.710Z,91.90
2018-03-30T05:22:19.960Z,59.80
2018-03-30T05:24:47.422Z,55.40
2018-03-30T05:27:14.902Z,62.83
2018-03-30T05:29:43.130Z,58.67
2018-03-30T05:32:10.635Z,130.02
2018-03-30T05:34:38.898Z,66.05
2018-03-30T05:37:06.379Z,113.60
2018-03-30T05:39:34.628Z,116.57
2018-03-30T05:42:02.083Z,79.40
2018-03-30T05:44:29.566Z,101.47
2018-03-30T05:46:57.798Z,79.75
2018-03-30T05:49:25.297Z,73.43
2018-03-30T05:51:52.742Z,55.08
2018-03-30T05:54:20.213Z,64.03
2018-03-30T05:56:48.476Z,78.85
2018-03-30T05:59:15.958Z,127.30
2018-03-30T06:01:44.220Z,81.60
2018-03-30T06:04:11.683Z,162.75
2018-03-30T06:06:39.942Z,73.87
2018-03-30T06:09:07.405Z,47.72
2018-03-30T06:11:34.898Z,69.20
2018-03-30T06:14:02.354Z,93.00
2018-03-30T06:16:29.868Z,64.57
2018-03-30T06:18:57.335Z,43.17
2018-03-30T06:21:24.793Z,70.35
2018-03-30T06:23:52.290Z,45.90
2018-03-30T06:26:19.768Z,48.72
2018-03-30T06:28:47.243Z,43.87
2018-03-30T06:31:14.723Z,46.55
2018-03-30T06:33:42.231Z,43.08
2018-03-30T06:36:09.717Z,149.77
2018-03-30T06:38:37.218Z,36.58
2018-03-30T06:41:05.450Z,68.43
2018-03-30T06:43:32.915Z,36.72
2018-03-30T06:46:00.403Z,88.85
2018-03-30T06:48:28.629Z,53.67
2018-03-30T06:50:56.113Z,104.80
2018-03-30T06:53:23.571Z,38.72
2018-03-30T06:55:51.046Z,27.20
2018-03-30T06:58:19.274Z,25.17
2018-03-30T07:00:46.762Z,25.70
2018-03-30T07:03:14.215Z,18.12
2018-03-30T07:05:41.697Z,24.75
2018-03-30T07:08:09.155Z,21.87
2018-03-30T07:10:37.435Z,21.52
2018-03-30T07:13:05.664Z,28.77
2018-03-30T07:15:33.163Z,18.37
2018-03-30T07:18:01.430Z,19.08
2018-03-30T07:20:29.002Z,21.60
2018-03-30T07:22:57.259Z,14.95
2018-03-30T07:25:26.235Z,23.60
2018-03-30T07:27:53.727Z,20.88
2018-03-30T07:30:21.969Z,22.17
2018-03-30T07:32:49.469Z,19.55
2018-03-30T07:35:17.699Z,23.33
2018-03-30T07:37:45.191Z,18.08
2018-03-30T07:40:12.684Z,16.23
2018-03-30T07:42:40.139Z,16.52
2018-03-30T07:45:07.632Z,14.85
2018-03-30T07:47:35.089Z,16.67
2018-03-30T07:50:02.618Z,15.63
2018-03-30T07:52:30.122Z,13.10
2018-03-30T07:54:57.629Z,13.65
2018-03-30T07:57:25.108Z,13.77
2018-03-30T07:59:52.620Z,17.30
2018-03-30T08:02:20.839Z,14.93
2018-03-30T08:04:48.314Z,17.33
2018-03-30T08:07:15.829Z,15.60
2018-03-30T08:09:43.318Z,15.20
2018-03-30T08:12:10.787Z,16.40
2018-03-30T08:14:38.267Z,12.90
2018-03-30T08:17:06.526Z,11.63
2018-03-30T08:19:34.028Z,9.90
2018-03-30T08:22:01.500Z,12.07
2018-03-30T08:24:28.968Z,15.00
2018-03-30T08:26:56.455Z,14.93
2018-03-30T08:29:23.951Z,14.37
2018-03-30T08:31:52.211Z,9.57
2018-03-30T08:34:19.705Z,12.60
2018-03-30T08:36:47.218Z,10.77
2018-03-30T08:39:14.722Z,21.67
2018-03-30T08:41:42.216Z,10.90
2018-03-30T08:44:09.708Z,11.65
2018-03-30T08:46:37.175Z,12.90
2018-03-30T08:49:05.444Z,14.48
2018-03-30T08:51:33.704Z,13.07
2018-03-30T08:54:01.226Z,14.32
2018-03-30T08:56:28.704Z,13.10
2018-03-30T08:58:56.207Z,17.62
2018-03-30T09:01:24.467Z,12.90
2018-03-30T09:03:51.934Z,11.98
2018-03-30T09:06:20.205Z,13.95
2018-03-30T09:08:48.442Z,16.65
2018-03-30T09:11:15.960Z,15.75
2018-03-30T09:13:43.425Z,13.27
2018-03-30T09:16:10.914Z,13.98
2018-03-30T09:18:38.415Z,14.35
2018-03-30T09:21:06.678Z,12.52
2018-03-30T09:23:34.940Z,15.88
2018-03-30T09:26:03.199Z,24.37
2018-03-30T09:28:30.706Z,16.33
2018-03-30T09:30:58.940Z,12.45
2018-03-30T09:33:28.207Z,13.15
2018-03-30T09:35:55.667Z,12.45
2018-03-30T09:38:23.182Z,8.13
2018-03-30T09:40:50.750Z,8.82
2018-03-30T09:43:19.036Z,9.27
2018-03-30T09:45:47.306Z,10.52
2018-03-30T09:48:15.569Z,8.80
2018-03-30T09:50:44.550Z,7.87
2018-03-30T09:53:12.022Z,9.20
2018-03-30T09:55:39.498Z,8.43
2018-03-30T09:58:07.732Z,9.43
2018-03-30T10:00:35.234Z,10.87
2018-03-30T10:03:04.453Z,9.37
2018-03-30T10:05:31.956Z,10.07
2018-03-30T10:07:59.417Z,10.30
2018-03-30T10:10:26.922Z,21.97
2018-03-30T10:12:54.410Z,37.67
2018-03-30T10:15:21.936Z,44.70
2018-03-30T10:17:49.396Z,12.87
2018-03-30T10:20:16.887Z,13.47
2018-03-30T10:22:44.364Z,9.50
2018-03-30T10:25:11.850Z,9.70
2018-03-30T10:27:39.365Z,10.40
2018-03-30T10:30:07.955Z,8.17
2018-03-30T10:32:35.437Z,7.47
2018-03-30T10:35:02.937Z,7.30
2018-03-30T10:37:30.458Z,9.43
2018-03-30T10:39:57.914Z,8.87
2018-03-30T10:42:26.166Z,8.90
2018-03-30T10:44:53.648Z,7.87
2018-03-30T10:47:21.901Z,9.90
2018-03-30T10:52:23.673Z,8.17
2018-03-30T10:54:51.138Z,8.57
2018-03-30T10:57:18.674Z,11.20
2018-03-30T10:59:46.890Z,15.60
2018-03-30T11:02:15.523Z,16.33
2018-03-30T11:04:43.008Z,17.13
2018-03-30T11:07:10.493Z,13.77
2018-03-30T11:09:38.730Z,9.23
2018-03-30T11:12:06.231Z,7.50
2018-03-30T11:14:33.709Z,7.50
2018-03-30T11:17:01.944Z,8.13
2018-03-30T11:19:29.459Z,20.83
2018-03-30T11:21:56.938Z,8.00
2018-03-30T11:24:24.436Z,28.47
2018-03-30T11:26:52.678Z,4.80
2018-03-30T11:29:21.331Z,3.93
2018-03-30T11:31:48.815Z,7.87
2018-03-30T11:34:16.314Z,6.10
2018-03-30T11:36:43.797Z,4.37
2018-03-30T11:39:11.302Z,7.57
2018-03-30T11:41:38.771Z,4.10
2018-03-30T11:44:06.314Z,6.20
2018-03-30T11:46:33.814Z,12.70
2018-03-30T11:49:02.435Z,5.27
2018-03-30T11:51:29.913Z,3.47
2018-03-30T11:53:57.372Z,3.67
2018-03-30T11:56:24.877Z,3.30
2018-03-30T11:58:53.097Z,3.20
2018-03-30T12:01:20.570Z,4.63
2018-03-30T12:03:48.058Z,4.10
2018-03-30T12:06:16.313Z,5.50
2018-03-30T12:08:43.790Z,4.10
2018-03-30T12:11:11.284Z,3.43
2018-03-30T12:13:38.763Z,8.23
2018-03-30T12:16:06.242Z,2.20
2018-03-30T12:18:33.715Z,3.43
2018-03-30T12:21:02.324Z,2.93
2018-03-30T12:23:30.570Z,5.53
2018-03-30T12:25:58.058Z,7.67
2018-03-30T12:28:26.320Z,2.60
2018-03-30T12:30:54.566Z,2.77
2018-03-30T12:33:22.059Z,2.27
2018-03-30T12:35:50.286Z,1.80
2018-03-30T12:38:17.809Z,1.80
2018-03-30T12:40:45.286Z,1.90
2018-03-30T12:43:12.775Z,1.67
2018-03-30T12:45:40.262Z,2.47
2018-03-30T12:48:08.502Z,2.07
2018-03-30T12:50:36.001Z,2.83
2018-03-30T12:53:04.639Z,12.50
2018-03-30T12:55:32.128Z,38.13
2018-03-30T12:58:00.386Z,2.00
2018-03-30T13:00:28.630Z,3.00
2018-03-30T13:02:56.146Z,4.40
2018-03-30T13:05:25.040Z,4.33
2018-03-30T13:07:53.250Z,3.07
2018-03-30T13:10:20.712Z,4.30
2018-03-30T13:12:48.213Z,12.33
2018-03-30T13:15:15.664Z,3.40
2018-03-30T13:17:43.181Z,2.63
2018-03-30T13:20:11.783Z,3.10
2018-03-30T13:22:39.271Z,2.33
2018-03-30T13:25:06.742Z,18.20
2018-03-30T13:27:35.374Z,23.27
2018-03-30T13:30:02.880Z,20.17
2018-03-30T13:32:30.363Z,3.13
2018-03-30T13:34:58.998Z,2.87
2018-03-30T13:37:26.473Z,3.60
2018-03-30T13:39:53.984Z,1.50
2018-03-30T13:42:21.471Z,1.80
2018-03-30T13:44:48.967Z,1.70
2018-03-30T13:47:17.216Z,1.57
2018-03-30T13:49:44.726Z,1.10
2018-03-30T13:55:07.596Z,1.20
2018-03-30T13:57:46.778Z,1.37
2018-03-30T14:00:23.068Z,1.33
2018-03-30T14:05:48.038Z,1.80
2018-03-30T14:11:15.837Z,7.50
2018-03-30T14:13:43.340Z,4.93
2018-03-30T14:16:23.336Z,14.07
2018-03-30T14:19:13.481Z,8.77
2018-03-30T14:22:02.435Z,3.93
2018-03-30T14:24:30.676Z,3.03
2018-03-30T14:27:16.626Z,1.77
2018-03-30T14:29:48.096Z,0.90
2018-03-30T14:32:34.187Z,1.77
2018-03-30T14:35:04.439Z,1.70
2018-03-30T14:37:36.450Z,1.80
2018-03-30T14:40:10.694Z,1.50
2018-03-30T14:42:40.036Z,2.83
2018-03-30T14:48:19.344Z,1.50
2018-03-30T14:50:54.729Z,1.20
2018-03-30T14:53:26.690Z,0.90
2018-03-30T14:56:07.790Z,1.70
2018-03-30T14:58:37.878Z,5.07
2018-03-30T15:04:07.707Z,2.67
2018-03-30T15:06:36.782Z,5.40
2018-03-30T15:09:10.878Z,2.17
2018-03-30T15:11:42.127Z,51.17
2018-03-30T15:14:14.014Z,139.97
2018-03-30T15:19:57.827Z,114.23
2018-03-30T15:22:27.931Z,88.60
2018-03-30T15:28:01.857Z,45.87
2018-03-30T15:30:31.943Z,4.73
2018-03-30T15:33:20.768Z,7.00
2018-03-30T15:35:50.860Z,27.67
2018-03-30T15:38:19.127Z,12.93
2018-03-30T15:40:46.608Z,23.27
2018-03-30T15:43:16.579Z,22.77
2018-03-30T15:45:49.084Z,13.87
2018-03-30T15:48:17.327Z,5.27
2018-03-30T15:50:44.810Z,16.60
2018-03-30T15:53:17.450Z,21.93
2018-03-30T15:55:46.670Z,8.63
2018-03-30T15:58:14.170Z,3.93
2018-03-30T16:00:41.666Z,11.30
2018-03-30T16:03:09.167Z,9.07
2018-03-30T16:05:36.669Z,20.03
2018-03-30T16:08:04.127Z,10.23
2018-03-30T16:10:38.119Z,10.83
2018-03-30T16:13:05.636Z,15.60
2018-03-30T16:15:33.194Z,9.73
2018-03-30T16:18:00.704Z,20.60
2018-03-30T16:20:27.698Z,9.10
2018-03-30T16:22:54.697Z,9.30
2018-03-30T16:25:21.701Z,14.83
2018-03-30T16:27:48.710Z,16.20
2018-03-30T16:30:15.701Z,8.93
2018-03-30T16:32:42.678Z,5.90
2018-03-30T16:35:09.681Z,10.77
2018-03-30T16:37:36.669Z,30.43
2018-03-30T16:40:03.676Z,5.57
2018-03-30T16:42:30.743Z,13.07
2018-03-30T16:44:58.523Z,5.20
2018-03-30T16:47:25.548Z,9.30
2018-03-30T16:49:52.546Z,14.63
2018-03-30T16:52:19.535Z,6.70
2018-03-30T16:54:46.514Z,38.53
2018-03-30T16:57:13.593Z,27.50
2018-03-30T16:59:40.575Z,15.40
2018-03-30T17:02:07.595Z,9.33
2018-03-30T17:04:34.594Z,17.90
2018-03-30T17:07:01.637Z,14.10
2018-03-30T17:09:29.388Z,6.60
2018-03-30T17:11:57.217Z,14.53
2018-03-30T17:14:24.240Z,4.27
2018-03-30T17:16:51.237Z,8.87
2018-03-30T17:19:18.246Z,12.23
2018-03-30T17:21:45.303Z,16.80
2018-03-30T17:24:12.329Z,9.70
2018-03-30T17:26:39.368Z,6.67
2018-03-30T17:29:06.398Z,5.70
2018-03-30T17:31:33.395Z,7.33
2018-03-30T17:34:00.429Z,21.10
2018-03-30T17:36:27.436Z,5.23
2018-03-30T17:38:55.217Z,5.53
2018-03-30T17:41:22.187Z,3.83
2018-03-30T17:43:49.218Z,16.63
2018-03-30T17:46:16.222Z,7.77
2018-03-30T17:48:43.243Z,9.10
2018-03-30T17:51:10.236Z,12.00
2018-03-30T17:53:38.010Z,9.03
2018-03-30T17:56:05.016Z,3.17
2018-03-30T17:58:32.045Z,24.77
2018-03-30T18:00:59.020Z,8.17
2018-03-30T18:03:26.006Z,6.97
2018-03-30T18:05:53.036Z,7.93
2018-03-30T18:08:20.783Z,6.07
2018-03-30T18:10:47.832Z,6.23
2018-03-30T18:13:15.583Z,6.80
2018-03-30T18:15:42.587Z,6.63
2018-03-30T18:18:09.596Z,13.30
2018-03-30T18:20:37.394Z,12.57
2018-03-30T18:23:04.375Z,7.30
2018-03-30T18:25:31.414Z,5.43
2018-03-30T18:27:58.385Z,8.37
2018-03-30T18:30:25.474Z,11.33
2018-03-30T18:32:52.455Z,6.33
2018-03-30T18:35:19.475Z,5.63
2018-03-30T18:37:46.499Z,6.30
2018-03-30T18:40:14.267Z,6.47
2018-03-30T18:42:42.031Z,8.37
2018-03-30T18:45:09.018Z,6.93
2018-03-30T18:47:36.037Z,5.13
2018-03-30T18:50:03.054Z,3.97
2018-03-30T18:52:30.846Z,4.43
2018-03-30T18:54:57.821Z,3.60
2018-03-30T18:57:24.844Z,7.70
2018-03-30T18:59:51.824Z,3.60
2018-03-30T19:02:18.810Z,10.17
2018-03-30T19:04:46.595Z,3.80
2018-03-30T19:07:13.612Z,3.57
2018-03-30T19:09:41.392Z,3.93
2018-03-30T19:12:09.154Z,4.10
2018-03-30T19:14:36.919Z,3.33
2018-03-30T19:17:04.693Z,3.03
2018-03-30T19:19:32.535Z,3.10
2018-03-30T19:22:00.402Z,5.97
2018-03-30T19:24:27.905Z,5.40
2018-03-30T19:26:54.952Z,6.13
2018-03-30T19:29:21.969Z,4.53
2018-03-30T19:31:49.719Z,5.30
2018-03-30T19:34:17.817Z,5.78
2018-03-30T19:36:44.803Z,7.55
2018-03-30T19:39:11.825Z,8.77
2018-03-30T19:41:38.807Z,8.65
2018-03-30T19:44:05.819Z,6.97
2018-03-30T19:46:32.814Z,10.52
2018-03-30T19:48:59.806Z,9.57
2018-03-30T19:51:26.813Z,12.13
2018-03-30T19:53:53.825Z,13.77
2018-03-30T19:56:20.830Z,14.90
2018-03-30T19:58:48.582Z,13.25
2018-03-30T20:01:16.399Z,14.48
2018-03-30T20:03:43.404Z,32.88
2018-03-30T20:06:11.189Z,19.08
2018-03-30T20:08:38.209Z,61.42
2018-03-30T20:11:06.051Z,32.33
2018-03-30T20:13:33.055Z,26.87
2018-03-30T20:16:00.069Z,19.12
2018-03-30T20:18:27.828Z,16.15
2018-03-30T20:20:54.836Z,18.27
2018-03-30T20:23:22.607Z,19.55
2018-03-30T20:25:50.418Z,28.55
2018-03-30T20:28:18.213Z,28.27
2018-03-30T20:30:45.232Z,28.95
2018-03-30T20:33:13.003Z,21.62
2018-03-30T20:35:40.789Z,25.73
2018-03-30T20:38:07.842Z,23.35
2018-03-30T20:40:34.859Z,25.27
2018-03-30T20:43:02.638Z,25.98
2018-03-30T20:45:29.651Z,25.95
2018-03-30T20:47:56.657Z,25.75
2018-03-30T20:50:23.659Z,22.35
2018-03-30T20:52:51.676Z,26.15
2018-03-30T20:55:18.694Z,18.90
2018-03-30T20:57:45.688Z,22.73
2018-03-30T21:00:12.718Z,21.58
2018-03-30T21:02:39.816Z,22.37
2018-03-30T21:05:07.587Z,18.83
2018-03-30T21:07:35.344Z,12.40
2018-03-30T21:10:03.158Z,9.82
2018-03-30T21:12:30.139Z,8.70
2018-03-30T21:14:57.186Z,9.68
2018-03-30T21:17:24.234Z,11.52
2018-03-30T21:19:51.290Z,12.30
2018-03-30T21:22:18.300Z,13.65
2018-03-30T21:24:45.326Z,17.25
2018-03-30T21:27:12.350Z,15.82
2018-03-30T21:29:40.089Z,12.25
2018-03-30T21:32:07.067Z,8.88
2018-03-30T21:34:34.045Z,12.45
2018-03-30T21:37:01.055Z,11.73
2018-03-30T21:39:28.041Z,7.03
2018-03-30T21:41:55.080Z,8.30
2018-03-30T21:44:22.082Z,14.15
2018-03-30T21:46:49.841Z,8.48
2018-03-30T21:49:16.850Z,8.48
2018-03-30T21:51:43.825Z,14.48
2018-03-30T21:54:10.821Z,13.73
2018-03-30T21:56:37.791Z,12.07
2018-03-30T21:59:04.812Z,70.43
2018-03-30T22:01:31.789Z,13.93
2018-03-30T22:03:58.786Z,20.10
2018-03-30T22:06:25.779Z,16.55
2018-03-30T22:08:52.911Z,13.85
2018-03-30T22:11:19.974Z,12.40
2018-03-30T22:13:46.969Z,14.38
2018-03-30T22:16:14.724Z,6.93
2018-03-30T22:18:42.472Z,11.60
2018-03-30T22:21:09.464Z,7.95
2018-03-30T22:23:36.442Z,39.83
2018-03-30T22:26:03.399Z,20.10
2018-03-30T22:28:30.392Z,12.07
2018-03-30T22:30:57.400Z,15.43
2018-03-30T22:33:24.389Z,4.65
2018-03-30T22:35:51.587Z,11.43
2018-03-30T22:38:18.642Z,4.03
2018-03-30T22:40:45.637Z,3.87
2018-03-30T22:43:12.615Z,6.00
2018-03-30T22:45:39.615Z,46.05
2018-03-30T22:48:07.377Z,4.57
2018-03-30T22:50:35.145Z,3.58
2018-03-30T22:53:02.906Z,5.35
2018-03-30T22:55:30.664Z,4.35
2018-03-30T22:57:58.422Z,6.97
2018-03-30T23:00:25.403Z,5.05
2018-03-30T23:02:52.400Z,5.62
2018-03-30T23:05:19.416Z,23.35
2018-03-30T23:07:46.385Z,6.28
2018-03-30T23:10:13.382Z,9.73
2018-03-30T23:12:40.349Z,6.18
2018-03-30T23:15:07.389Z,5.87
2018-03-30T23:17:34.360Z,5.43
2018-03-30T23:20:01.318Z,5.32
2018-03-30T23:22:28.312Z,5.37
2018-03-30T23:24:55.282Z,7.22
2018-03-30T23:27:22.287Z,5.25
2018-03-30T23:29:50.022Z,4.40
2018-03-30T23:32:17.008Z,5.05
2018-03-30T23:34:44.733Z,4.82
2018-03-30T23:37:11.749Z,5.68
2018-03-30T23:39:38.717Z,6.57
2018-03-30T23:42:05.705Z,6.87
2018-03-30T23:44:33.432Z,7.65
2018-03-30T23:47:00.476Z,6.50
2018-03-30T23:49:27.445Z,6.30
2018-03-30T23:51:55.185Z,8.77
2018-03-30T23:54:22.199Z,8.90
2018-03-30T23:56:49.206Z,10.57
2018-03-30T23:59:16.204Z,7.03
